Time,TemperatureF,DewpointF,PressureIn,WindDirection,WindDirectionDegrees,WindSpeedMPH,WindSpeedGustMPH,Humidity,HourlyPrecipIn,Conditions,Clouds,dailyrainin,SoftwareType,DateUTC
2013-03-09 00:01:00,46.0,42.0,30.19,NNW,348,7.0,14.0,86,0.00,,,0.00,,2013-03-09 08:01:00,
2013-03-09 00:11:00,46.0,42.0,30.19,NNW,348,7.0,14.0,86,0.00,,,0.00,,2013-03-09 08:11:00,
2013-03-09 00:21:00,45.0,41.0,30.19,NNW,334,0.0,4.0,87,0.00,,,0.00,,2013-03-09 08:21:00,
2013-03-09 00:31:00,45.0,42.0,30.20,North,0,0.0,0.0,88,0.00,,,0.00,,2013-03-09 08:31:00,
2013-03-09 00:41:00,45.0,42.0,30.20,North,0,0.0,0.0,88,0.00,,,0.00,,2013-03-09 08:41:00,
2013-03-09 00:52:00,45.0,42.0,30.20,North,0,0.0,0.0,88,0.00,,,0.00,,2013-03-09 08:52:00,
2013-03-09 01:01:00,45.0,42.0,30.21,North,0,0.0,0.0,89,0.00,,,0.00,,2013-03-09 09:01:00,
2013-03-09 01:11:00,45.0,42.0,30.21,North,0,0.0,0.0,89,0.00,,,0.00,,2013-03-09 09:11:00,
2013-03-09 01:21:00,45.0,42.0,30.22,NNW,327,5.0,7.0,89,0.00,,,0.00,,2013-03-09 09:21:00,
2013-03-09 01:31:00,44.0,41.0,30.22,North,350,6.0,8.0,89,0.00,,,0.00,,2013-03-09 09:31:00,
2013-03-09 01:41:00,44.0,41.0,30.22,North,350,6.0,8.0,89,0.00,,,0.00,,2013-03-09 09:41:00,
2013-03-09 01:52:00,44.0,40.0,30.23,NNW,331,4.0,7.0,87,0.00,,,0.00,,2013-03-09 09:52:00,
2013-03-09 02:01:00,44.0,40.0,30.23,NNW,327,5.0,7.0,87,0.00,,,0.00,,2013-03-09 10:01:00,
2013-03-09 02:11:00,44.0,40.0,30.23,NNW,327,5.0,7.0,87,0.00,,,0.00,,2013-03-09 10:11:00,
2013-03-09 02:21:00,44.0,40.0,30.24,North,351,5.0,6.0,86,0.00,,,0.00,,2013-03-09 10:21:00,
2013-03-09 02:31:00,44.0,41.0,30.24,North,351,6.0,7.0,88,0.00,,,0.00,,2013-03-09 10:31:00,
2013-03-09 02:41:00,44.0,41.0,30.24,North,351,6.0,7.0,88,0.00,,,0.00,,2013-03-09 10:41:00,
2013-03-09 02:52:00,44.0,40.0,30.24,NW,309,8.0,8.0,87,0.00,,,0.00,,2013-03-09 10:52:00,
2013-03-09 03:01:00,45.0,40.0,30.25,NW,324,4.0,8.0,84,0.00,,,0.00,,2013-03-09 11:01:00,
2013-03-09 03:11:00,45.0,40.0,30.25,NW,324,4.0,8.0,84,0.00,,,0.00,,2013-03-09 11:11:00,
2013-03-09 03:21:00,45.0,40.0,30.26,North,0,0.0,6.0,82,0.00,,,0.00,,2013-03-09 11:21:00,
2013-03-09 03:31:00,45.0,39.0,30.25,North,0,6.0,6.0,80,0.00,,,0.00,,2013-03-09 11:31:00,
2013-03-09 03:41:00,45.0,39.0,30.25,North,0,6.0,6.0,80,0.00,,,0.00,,2013-03-09 11:41:00,
2013-03-09 03:52:00,47.0,41.0,30.25,NE,37,8.0,9.0,78,0.00,,,0.00,,2013-03-09 11:52:00,
2013-03-09 04:01:00,47.0,39.0,30.26,ENE,78,10.0,11.0,74,0.00,,,0.00,,2013-03-09 12:01:00,
2013-03-09 04:11:00,47.0,39.0,30.26,ENE,78,10.0,11.0,74,0.00,,,0.00,,2013-03-09 12:11:00,
2013-03-09 04:21:00,47.0,40.0,30.26,East,86,12.0,13.0,77,0.00,,,0.00,,2013-03-09 12:21:00,
2013-03-09 04:31:00,47.0,39.0,30.27,East,86,13.0,14.0,74,0.00,,,0.00,,2013-03-09 12:31:00,
2013-03-09 04:42:00,47.0,39.0,30.27,East,86,13.0,14.0,74,0.00,,,0.00,,2013-03-09 12:42:00,
2013-03-09 04:52:00,47.0,38.0,30.28,East,84,9.0,15.0,72,0.00,,,0.00,,2013-03-09 12:52:00,
2013-03-09 05:02:00,47.0,38.0,30.29,East,98,8.0,10.0,71,0.00,,,0.00,,2013-03-09 13:02:00,
2013-03-09 05:11:00,47.0,38.0,30.29,East,98,8.0,10.0,71,0.00,,,0.00,,2013-03-09 13:11:00,
2013-03-09 05:21:00,46.0,37.0,30.29,East,89,8.0,10.0,71,0.00,,,0.00,,2013-03-09 13:21:00,
2013-03-09 05:31:00,46.0,37.0,30.30,East,95,2.0,10.0,71,0.00,,,0.00,,2013-03-09 13:31:00,
2013-03-09 05:41:00,46.0,37.0,30.30,East,95,2.0,10.0,71,0.00,,,0.00,,2013-03-09 13:41:00,
2013-03-09 05:52:00,45.0,36.0,30.31,North,0,0.0,7.0,71,0.00,,,0.00,,2013-03-09 13:52:00,
2013-03-09 06:01:00,44.0,39.0,30.32,WNW,282,7.0,13.0,81,0.00,,,0.00,,2013-03-09 14:01:00,
2013-03-09 06:11:00,44.0,39.0,30.32,WNW,282,7.0,13.0,81,0.00,,,0.00,,2013-03-09 14:11:00,
2013-03-09 06:21:00,44.0,40.0,30.32,WNW,287,6.0,10.0,87,0.00,,,0.00,,2013-03-09 14:21:00,
2013-03-09 06:31:00,44.0,39.0,30.32,NW,309,6.0,8.0,81,0.00,,,0.00,,2013-03-09 14:31:00,
2013-03-09 06:41:00,44.0,39.0,30.32,NW,309,6.0,8.0,81,0.00,,,0.00,,2013-03-09 14:41:00,
2013-03-09 06:52:00,44.0,39.0,30.33,NW,323,1.0,9.0,84,0.00,,,0.00,,2013-03-09 14:52:00,
2013-03-09 07:01:00,44.0,40.0,30.35,NW,310,8.0,10.0,85,0.00,,,0.00,,2013-03-09 15:01:00,
2013-03-09 07:11:00,44.0,40.0,30.35,NW,310,8.0,10.0,85,0.00,,,0.00,,2013-03-09 15:11:00,
2013-03-09 07:21:00,44.0,40.0,30.36,NW,324,5.0,13.0,85,0.00,,,0.00,,2013-03-09 15:21:00,
2013-03-09 07:31:00,44.0,40.0,30.36,NW,323,6.0,12.0,86,0.00,,,0.00,,2013-03-09 15:31:00,
2013-03-09 07:42:00,44.0,40.0,30.36,NW,323,6.0,12.0,86,0.00,,,0.00,,2013-03-09 15:42:00,
2013-03-09 07:52:00,44.0,40.0,30.35,North,355,8.0,13.0,85,0.00,,,0.00,,2013-03-09 15:52:00,
2013-03-09 08:01:00,45.0,41.0,30.36,North,354,7.0,10.0,85,0.00,,,0.00,,2013-03-09 16:01:00,
2013-03-09 08:11:00,45.0,41.0,30.36,North,354,7.0,10.0,85,0.00,,,0.00,,2013-03-09 16:11:00,
2013-03-09 08:21:00,45.0,41.0,30.36,NNE,28,10.0,11.0,85,0.00,,,0.00,,2013-03-09 16:21:00,
2013-03-09 08:31:00,44.0,40.0,30.37,NNE,21,5.0,10.0,87,0.00,,,0.00,,2013-03-09 16:31:00,
2013-03-09 08:41:00,44.0,40.0,30.37,NNE,21,5.0,10.0,87,0.00,,,0.00,,2013-03-09 16:41:00,
2013-03-09 08:52:00,44.0,40.0,30.38,ENE,68,6.0,7.0,86,0.00,,,0.00,,2013-03-09 16:52:00,
2013-03-09 09:01:00,44.0,39.0,30.39,North,0,0.0,7.0,83,0.00,,,0.00,,2013-03-09 17:01:00,
2013-03-09 09:11:00,44.0,39.0,30.39,North,0,0.0,7.0,83,0.00,,,0.00,,2013-03-09 17:11:00,
2013-03-09 09:21:00,45.0,39.0,30.39,North,0,0.0,0.0,80,0.00,,,0.00,,2013-03-09 17:21:00,
2013-03-09 09:31:00,46.0,40.0,30.40,WNW,303,5.0,7.0,80,0.00,,,0.00,,2013-03-09 17:31:00,
2013-03-09 09:42:00,46.0,40.0,30.40,WNW,303,5.0,7.0,80,0.00,,,0.00,,2013-03-09 17:42:00,
2013-03-09 09:52:00,46.0,41.0,30.41,NW,322,6.0,10.0,82,0.00,,,0.00,,2013-03-09 17:52:00,
2013-03-09 10:01:00,46.0,41.0,30.42,NW,320,3.0,10.0,83,0.00,,,0.00,,2013-03-09 18:01:00,
2013-03-09 10:11:00,46.0,41.0,30.42,NW,320,3.0,10.0,83,0.00,,,0.00,,2013-03-09 18:11:00,
2013-03-09 10:21:00,47.0,42.0,30.42,NNW,330,6.0,10.0,83,0.00,,,0.00,,2013-03-09 18:21:00,
2013-03-09 10:31:00,47.0,42.0,30.42,NW,326,7.0,11.0,84,0.00,,,0.00,,2013-03-09 18:31:00,
2013-03-09 10:41:00,47.0,42.0,30.42,NW,326,7.0,11.0,84,0.00,,,0.00,,2013-03-09 18:41:00,
2013-03-09 10:52:00,47.0,42.0,30.42,NNW,333,1.0,8.0,83,0.00,,,0.00,,2013-03-09 18:52:00,
2013-03-09 11:01:00,48.0,42.0,30.42,NNW,337,0.0,2.0,79,0.00,,,0.00,,2013-03-09 19:01:00,
2013-03-09 11:11:00,48.0,42.0,30.42,NNW,337,0.0,2.0,79,0.00,,,0.00,,2013-03-09 19:11:00,
2013-03-09 11:21:00,48.0,41.0,30.42,North,0,0.0,0.0,77,0.00,,,0.00,,2013-03-09 19:21:00,
2013-03-09 11:31:00,49.0,41.0,30.43,NW,316,9.0,13.0,75,0.00,,,0.00,,2013-03-09 19:31:00,
2013-03-09 11:41:00,49.0,41.0,30.43,NW,316,9.0,13.0,75,0.00,,,0.00,,2013-03-09 19:41:00,
2013-03-09 11:52:00,50.0,42.0,30.43,NW,319,5.0,12.0,75,0.00,,,0.00,,2013-03-09 19:52:00,
2013-03-09 12:01:00,51.0,43.0,30.43,North,0,0.0,7.0,73,0.00,,,0.00,,2013-03-09 20:01:00,
2013-03-09 12:11:00,51.0,43.0,30.43,North,0,0.0,7.0,73,0.00,,,0.00,,2013-03-09 20:11:00,
2013-03-09 12:21:00,51.0,43.0,30.42,North,1,6.0,6.0,74,0.00,,,0.00,,2013-03-09 20:21:00,
2013-03-09 12:31:00,53.0,43.0,30.43,ENE,77,3.0,6.0,70,0.00,,,0.00,,2013-03-09 20:31:00,
2013-03-09 12:41:00,53.0,43.0,30.43,ENE,77,3.0,6.0,70,0.00,,,0.00,,2013-03-09 20:41:00,
2013-03-09 12:52:00,54.0,43.0,30.43,North,0,0.0,6.0,65,0.00,,,0.00,,2013-03-09 20:52:00,
2013-03-09 13:01:00,55.0,41.0,30.43,North,0,0.0,2.0,59,0.00,,,0.00,,2013-03-09 21:01:00,
2013-03-09 13:11:00,55.0,41.0,30.43,North,0,0.0,2.0,59,0.00,,,0.00,,2013-03-09 21:11:00,
2013-03-09 13:21:00,55.0,41.0,30.42,North,0,0.0,5.0,60,0.00,,,0.00,,2013-03-09 21:21:00,
2013-03-09 13:31:00,55.0,43.0,30.42,North,0,0.0,0.0,63,0.00,,,0.00,,2013-03-09 21:31:00,
2013-03-09 13:41:00,55.0,43.0,30.42,North,0,0.0,0.0,63,0.00,,,0.00,,2013-03-09 21:41:00,
2013-03-09 13:52:00,54.0,41.0,30.43,NW,320,5.0,8.0,62,0.00,,,0.00,,2013-03-09 21:52:00,
2013-03-09 14:01:00,54.0,41.0,30.42,NW,324,0.0,8.0,62,0.00,,,0.00,,2013-03-09 22:01:00,
2013-03-09 14:11:00,54.0,41.0,30.42,NW,324,0.0,8.0,62,0.00,,,0.00,,2013-03-09 22:11:00,
2013-03-09 14:21:00,54.0,42.0,30.42,North,0,0.0,0.0,63,0.00,,,0.00,,2013-03-09 22:21:00,
2013-03-09 14:32:00,54.0,40.0,30.42,North,0,0.0,0.0,60,0.00,,,0.00,,2013-03-09 22:32:00,
2013-03-09 14:41:00,54.0,40.0,30.42,North,0,0.0,0.0,60,0.00,,,0.00,,2013-03-09 22:41:00,
2013-03-09 14:51:00,54.0,40.0,30.41,North,0,0.0,0.0,58,0.00,,,0.00,,2013-03-09 22:51:00,
2013-03-09 15:01:00,55.0,40.0,30.42,NW,322,0.0,7.0,57,0.00,,,0.00,,2013-03-09 23:01:00,
2013-03-09 15:11:00,55.0,40.0,30.42,NW,322,0.0,7.0,57,0.00,,,0.00,,2013-03-09 23:11:00,
2013-03-09 15:21:00,54.0,40.0,30.41,NNW,337,0.0,6.0,58,0.00,,,0.00,,2013-03-09 23:21:00,
2013-03-09 15:31:00,54.0,40.0,30.42,North,0,0.0,0.0,58,0.00,,,0.00,,2013-03-09 23:31:00,
2013-03-09 15:41:00,54.0,40.0,30.42,North,0,0.0,0.0,58,0.00,,,0.00,,2013-03-09 23:41:00,
2013-03-09 15:52:00,54.0,39.0,30.42,North,0,2.0,2.0,56,0.00,,,0.00,,2013-03-09 23:52:00,
2013-03-09 16:01:00,54.0,38.0,30.42,NW,322,7.0,10.0,54,0.00,,,0.00,,2013-03-10 00:01:00,
2013-03-09 16:11:00,54.0,38.0,30.42,NW,322,7.0,10.0,54,0.00,,,0.00,,2013-03-10 00:11:00,
2013-03-09 16:21:00,53.0,36.0,30.42,North,352,3.0,9.0,53,0.00,,,0.00,,2013-03-10 00:21:00,
2013-03-09 16:31:00,54.0,35.0,30.41,NW,312,4.0,6.0,49,0.00,,,0.00,,2013-03-10 00:31:00,
2013-03-09 16:52:00,53.0,33.0,30.42,NW,315,6.0,6.0,47,0.00,,,0.00,,2013-03-10 00:52:00,
2013-03-09 17:01:00,53.0,39.0,30.42,NNW,327,2.0,9.0,58,0.00,,,0.00,,2013-03-10 01:01:00,
2013-03-09 17:11:00,53.0,39.0,30.42,NNW,327,2.0,9.0,58,0.00,,,0.00,,2013-03-10 01:11:00,
2013-03-09 17:21:00,52.0,38.0,30.42,NNW,329,7.0,10.0,59,0.00,,,0.00,,2013-03-10 01:21:00,
2013-03-09 17:31:00,50.0,38.0,30.42,NNW,327,8.0,13.0,63,0.00,,,0.00,,2013-03-10 01:31:00,
2013-03-09 17:41:00,50.0,38.0,30.42,NNW,327,8.0,13.0,63,0.00,,,0.00,,2013-03-10 01:41:00,
2013-03-09 17:51:00,49.0,39.0,30.42,NW,324,12.0,14.0,68,0.00,,,0.00,,2013-03-10 01:51:00,
2013-03-09 18:01:00,48.0,38.0,30.42,NNW,333,10.0,11.0,69,0.00,,,0.00,,2013-03-10 02:01:00,
2013-03-09 18:11:00,48.0,38.0,30.42,NNW,333,10.0,11.0,69,0.00,,,0.00,,2013-03-10 02:11:00,
2013-03-09 18:22:00,48.0,39.0,30.42,NW,326,9.0,14.0,71,0.00,,,0.00,,2013-03-10 02:22:00,
2013-03-09 18:31:00,47.0,39.0,30.44,NNW,327,9.0,16.0,74,0.00,,,0.00,,2013-03-10 02:31:00,
2013-03-09 18:41:00,47.0,39.0,30.44,NNW,327,9.0,16.0,74,0.00,,,0.00,,2013-03-10 02:41:00,
2013-03-09 18:52:00,46.0,39.0,30.45,North,350,9.0,14.0,75,0.00,,,0.00,,2013-03-10 02:52:00,
2013-03-09 19:01:00,46.0,39.0,30.45,NNW,327,8.0,13.0,75,0.00,,,0.00,,2013-03-10 03:01:00,
2013-03-09 19:11:00,46.0,39.0,30.45,NNW,333,8.0,11.0,76,0.00,,,0.00,,2013-03-10 03:11:00,
2013-03-09 19:21:00,46.0,39.0,30.45,NNW,333,8.0,11.0,76,0.00,,,0.00,,2013-03-10 03:21:00,
2013-03-09 19:31:00,45.0,38.0,30.46,NNW,327,11.0,13.0,75,0.00,,,0.00,,2013-03-10 03:31:00,
2013-03-09 19:41:00,45.0,38.0,30.47,NNW,327,12.0,13.0,76,0.00,,,0.00,,2013-03-10 03:41:00,
2013-03-09 19:52:00,45.0,38.0,30.47,NNW,327,12.0,13.0,76,0.00,,,0.00,,2013-03-10 03:52:00,
2013-03-09 20:01:00,45.0,37.0,30.46,NNW,344,9.0,10.0,74,0.00,,,0.00,,2013-03-10 04:01:00,
2013-03-09 20:11:00,46.0,35.0,30.46,NNW,344,7.0,11.0,65,0.00,,,0.00,,2013-03-10 04:11:00,
2013-03-09 20:21:00,46.0,35.0,30.46,NNW,344,7.0,11.0,65,0.00,,,0.00,,2013-03-10 04:21:00,
2013-03-09 20:31:00,47.0,34.0,30.47,North,351,9.0,10.0,61,0.00,,,0.00,,2013-03-10 04:31:00,
2013-03-09 20:41:00,47.0,34.0,30.47,North,351,9.0,10.0,61,0.00,,,0.00,,2013-03-10 04:41:00,
2013-03-09 20:52:00,47.0,33.0,30.47,NNW,348,8.0,10.0,59,0.00,,,0.00,,2013-03-10 04:52:00,
2013-03-09 21:01:00,47.0,32.0,30.46,North,354,8.0,9.0,56,0.00,,,0.00,,2013-03-10 05:01:00,
2013-03-09 21:11:00,47.0,32.0,30.46,North,354,8.0,9.0,56,0.00,,,0.00,,2013-03-10 05:11:00,
2013-03-09 21:21:00,48.0,32.0,30.46,North,350,7.0,9.0,54,0.00,,,0.00,,2013-03-10 05:21:00,
2013-03-09 21:31:00,48.0,34.0,30.47,North,357,2.0,8.0,59,0.00,,,0.00,,2013-03-10 05:31:00,
2013-03-09 21:42:00,47.0,35.0,30.47,NW,324,8.0,9.0,62,0.00,,,0.00,,2013-03-10 05:42:00,
2013-03-09 21:52:00,47.0,35.0,30.47,NW,324,8.0,9.0,62,0.00,,,0.00,,2013-03-10 05:52:00,
2013-03-09 22:01:00,46.0,36.0,30.48,NNW,347,6.0,8.0,68,0.00,,,0.00,,2013-03-10 06:01:00,
2013-03-09 22:11:00,46.0,37.0,30.48,North,0,0.0,6.0,71,0.00,,,0.00,,2013-03-10 06:11:00,
2013-03-09 22:21:00,46.0,37.0,30.48,North,0,0.0,6.0,71,0.00,,,0.00,,2013-03-10 06:21:00,
2013-03-09 22:31:00,46.0,38.0,30.47,North,0,0.0,0.0,73,0.00,,,0.00,,2013-03-10 06:31:00,
2013-03-09 22:41:00,47.0,34.0,30.47,North,0,0.0,0.0,61,0.00,,,0.00,,2013-03-10 06:41:00,
2013-03-09 22:52:00,47.0,34.0,30.47,North,0,0.0,0.0,61,0.00,,,0.00,,2013-03-10 06:52:00,
2013-03-09 23:01:00,48.0,33.0,30.47,North,0,0.0,0.0,56,0.00,,,0.00,,2013-03-10 07:01:00,
2013-03-09 23:11:00,49.0,29.0,30.47,North,0,0.0,0.0,45,0.00,,,0.00,,2013-03-10 07:11:00,
2013-03-09 23:31:00,50.0,28.0,30.47,North,0,0.0,0.0,43,0.00,,,0.00,,2013-03-10 07:31:00,
2013-03-09 23:41:00,49.0,26.0,30.47,North,0,0.0,0.0,41,0.00,,,0.00,,2013-03-10 07:41:00,